Time;durP1;ratioP1;P1;durP2;ratioP2;P2;SDS_P1;SDS_P2;PMS_P1;PMS_P2;Temp;Humidity;BMP_temperature;BMP_pressure;BME280_temperature;BME280_humidity;BME280_pressure;Samples;Min_cycle;Max_cycle;Signal;HPM_P1;HPM_P2
2021/12/25 18:11:11;;;;;;;;;;;;;;;3.78;100.00;97510.66;5753053;23;20529;-68
2021/12/25 18:13:39;;;;;;;;;;;;;;;3.83;100.00;97499.28;4914015;29;20259;-69
2021/12/25 18:16:07;;;;;;;;;;;;;;;3.87;100.00;97494.59;4909253;29;20340;-67
2021/12/25 18:18:34;;;;;;;;;;;;;;;3.82;100.00;97488.56;4915542;29;19978;-67
2021/12/25 18:21:04;;;;;;;;;;;;;;;3.84;100.00;97495.34;4917177;29;19957;-68
2021/12/25 18:23:31;;;;;;;;;;;;;;;3.78;100.00;97494.06;4916393;29;19955;-69
2021/12/25 18:25:59;;;;;;;;;;;;;;;3.69;100.00;97509.34;4916055;29;19956;-68
2021/12/25 18:28:29;;;;;;;;;;;;;;;3.69;100.00;97495.50;4908574;29;19969;-68
2021/12/25 18:31:00;;;;;;;;;;;;;;;3.74;100.00;97503.50;4914007;29;19956;-68
2021/12/25 18:33:28;;;;;;;;;;;;;;;3.75;100.00;97503.09;4916954;29;19979;-68
2021/12/25 18:35:56;;;;;;;;;;;;;;;3.76;100.00;97506.69;4916195;29;19960;-68
2021/12/25 18:38:23;;;;;;;;;;;;;;;3.80;100.00;97513.03;4916353;29;19985;-68
2021/12/25 18:40:52;;;;;;;;;;;;;;;3.83;100.00;97513.13;4916837;29;19955;-68
2021/12/25 18:43:22;;;;;;;;;;;;;;;3.89;100.00;97502.50;4915077;29;20260;-68
2021/12/25 18:45:50;;;;;;;;;;;;;;;3.89;100.00;97508.84;4916894;29;19957;-68
2021/12/25 18:48:18;;;;;;;;;;;;;;;3.86;100.00;97501.28;4914992;29;19962;-68
2021/12/25 18:50:45;;;;;;;;;;;;;;;3.84;100.00;97517.47;4910998;29;20022;-68
2021/12/25 18:53:13;;;;;;;;;;;;;;;3.85;100.00;97513.53;4916276;29;19959;-68
2021/12/25 18:55:40;;;;;;;;;;;;;;;3.87;100.00;97510.38;4917448;29;20254;-69
2021/12/25 18:58:09;;;;;;;;;;;;;;;3.86;100.00;97515.09;4917545;29;19983;-68
2021/12/25 19:00:41;;;;;;;;;;;;;;;3.83;100.00;97509.53;4913846;29;19948;-68
2021/12/25 19:03:13;;;;;;;;;;;;;;;3.84;100.00;97511.13;4899539;29;19961;-69
2021/12/25 19:05:46;;;;;;;;;;;;;;;3.84;100.00;97506.41;4913713;29;19954;-68
2021/12/25 19:08:15;;;;;;;;;;;;;;;3.86;100.00;97497.75;4911078;29;19954;-68
2021/12/25 19:10:44;;;;;;;;;;;;;;;3.81;100.00;97509.13;4907810;29;19959;-69
2021/12/25 19:13:11;;;;;;;;;;;;;;;3.79;100.00;97515.00;4914093;29;19972;-68
2021/12/25 19:15:42;;;;;;;;;;;;;;;3.77;100.00;97514.59;4915975;29;19951;-68
2021/12/25 19:18:11;;;;;;;;;;;;;;;3.81;100.00;97531.25;4916986;29;19971;-68
2021/12/25 19:20:38;;;;;;;;;;;;;;;3.85;100.00;97524.59;4914648;29;19955;-70
2021/12/25 19:23:05;;;;;;;;;;;;;;;3.79;100.00;97528.84;4913256;29;19955;-70
2021/12/25 19:25:33;;;;;;;;;;;;;;;3.76;100.00;97524.06;4914960;29;19952;-69
2021/12/25 19:28:00;;;;;;;;;;;;;;;3.72;100.00;97525.16;4914996;29;20248;-69
2021/12/25 19:30:29;;;;;;;;;;;;;;;3.71;100.00;97518.06;5165818;23;19985;-65
2021/12/25 19:32:57;;;;;;;;;;;;;;;3.76;100.00;97507.47;4917049;29;19972;-66
2021/12/25 19:35:27;;;;;;;;;;;;;;;3.75;100.00;97525.22;4915905;29;19959;-67
2021/12/25 19:37:54;;;;;;;;;;;;;;;3.74;100.00;97523.63;4909958;29;19983;-67
2021/12/25 19:40:22;;;;;;;;;;;;;;;3.70;100.00;97528.31;4916079;29;19976;-67
2021/12/25 19:42:50;;;;;;;;;;;;;;;3.67;100.00;97531.00;4908131;29;19952;-66
2021/12/25 19:45:19;;;;;;;;;;;;;;;3.71;100.00;97535.44;4906246;29;19952;-67
2021/12/25 19:47:47;;;;;;;;;;;;;;;3.78;100.00;97518.16;4901384;29;19958;-68
2021/12/25 19:50:16;;;;;;;;;;;;;;;3.77;100.00;97517.34;4915251;29;19957;-67
2021/12/25 19:52:45;;;;;;;;;;;;;;;3.75;100.00;97516.13;4915871;29;20267;-66
2021/12/25 19:55:13;;;;;;;;;;;;;;;3.78;100.00;97507.91;4917496;29;19953;-67
2021/12/25 19:57:40;;;;;;;;;;;;;;;3.78;100.00;97515.41;4915913;29;19961;-68
2021/12/25 20:00:09;;;;;;;;;;;;;;;3.77;100.00;97517.34;4919778;29;19957;-69
2021/12/25 20:02:40;;;;;;;;;;;;;;;3.80;100.00;97526.88;4921340;29;19948;-69
2021/12/25 20:05:10;;;;;;;;;;;;;;;3.79;100.00;97534.38;4920327;29;19956;-68
2021/12/25 20:07:44;;;;;;;;;;;;;;;3.82;100.00;97530.06;4921201;29;19963;-69
2021/12/25 20:10:16;;;;;;;;;;;;;;;3.81;100.00;97536.78;4919187;29;19956;-69
2021/12/25 20:12:44;;;;;;;;;;;;;;;3.83;100.00;97539.97;4919781;29;19957;-69
2021/12/25 20:15:12;;;;;;;;;;;;;;;3.77;100.00;97544.19;4919632;29;20390;-68
2021/12/25 20:17:39;;;;;;;;;;;;;;;3.75;100.00;97538.25;4919475;29;19950;-69
2021/12/25 20:20:08;;;;;;;;;;;;;;;3.75;100.00;97533.53;4919477;29;19974;-68
2021/12/25 20:22:36;;;;;;;;;;;;;;;3.77;100.00;97530.38;4919738;29;19958;-68
2021/12/25 20:25:05;;;;;;;;;;;;;;;3.78;100.00;97537.50;4913670;29;19968;-68
2021/12/25 20:27:32;;;;;;;;;;;;;;;3.75;100.00;97541.81;4905922;29;20017;-67
2021/12/25 20:30:00;;;;;;;;;;;;;;;3.70;100.00;97544.09;4918728;29;20216;-68
2021/12/25 20:32:27;;;;;;;;;;;;;;;3.74;100.00;97542.19;4916214;29;19973;-67
2021/12/25 20:34:55;;;;;;;;;;;;;;;3.76;100.00;97532.38;4893642;29;19959;-67
2021/12/25 20:37:22;;;;;;;;;;;;;;;3.74;100.00;97539.44;4915664;29;19960;-68
2021/12/25 20:39:50;;;;;;;;;;;;;;;3.67;100.00;97536.53;4918916;29;19977;-68
2021/12/25 20:42:19;;;;;;;;;;;;;;;3.71;100.00;97535.44;4919831;29;20260;-68
2021/12/25 20:47:16;;;;;;;;;;;;;;;3.68;100.00;97538.16;4918685;29;19985;-67
2021/12/25 20:49:45;;;;;;;;;;;;;;;3.68;100.00;97527.09;4919987;29;19961;-68
2021/12/25 20:52:12;;;;;;;;;;;;;;;3.62;100.00;97540.41;4918267;29;19960;-67
2021/12/25 20:54:41;;;;;;;;;;;;;;;3.69;100.00;97532.22;4920110;29;19966;-67
2021/12/25 20:57:09;;;;;;;;;;;;;;;3.69;100.00;97546.06;4918866;29;19965;-68
2021/12/25 20:59:38;;;;;;;;;;;;;;;3.68;100.00;97536.19;4918337;29;19963;-68
2021/12/25 21:02:06;;;;;;;;;;;;;;;3.69;100.00;97548.03;4903072;29;20253;-68
2021/12/25 21:04:33;;;;;;;;;;;;;;;3.69;100.00;97542.50;4918985;29;19962;-68
2021/12/25 21:07:01;;;;;;;;;;;;;;;3.75;100.00;97543.78;4902998;29;19961;-69
2021/12/25 21:09:32;;;;;;;;;;;;;;;3.74;100.00;97536.66;4914383;29;19958;-68
2021/12/25 21:12:00;;;;;;;;;;;;;;;3.72;100.00;97534.25;4913190;29;20393;-68
2021/12/25 21:14:43;;;;;;;;;;;;;;;3.76;100.00;97514.97;4915905;29;19962;-68
2021/12/25 21:17:10;;;;;;;;;;;;;;;3.80;100.00;97511.09;4909166;29;20270;-68
2021/12/25 21:19:38;;;;;;;;;;;;;;;3.75;100.00;97519.69;4896751;29;19967;-68
2021/12/25 21:22:05;;;;;;;;;;;;;;;3.74;100.00;97528.38;4916537;29;20146;-68
2021/12/25 21:24:32;;;;;;;;;;;;;;;3.71;100.00;97520.81;4919489;29;19955;-68
2021/12/25 21:27:00;;;;;;;;;;;;;;;3.74;100.00;97522.84;4917295;29;19965;-67
2021/12/25 21:29:27;;;;;;;;;;;;;;;3.71;100.00;97515.28;4917687;29;20024;-68
2021/12/25 21:31:54;;;;;;;;;;;;;;;3.64;100.00;97518.75;4918723;29;19976;-67
2021/12/25 21:34:22;;;;;;;;;;;;;;;3.65;100.00;97511.22;4918798;29;19955;-67
2021/12/25 21:36:49;;;;;;;;;;;;;;;3.64;100.00;97518.75;4919265;29;19951;-68
2021/12/25 21:39:17;;;;;;;;;;;;;;;3.61;100.00;97510.38;4919094;29;19968;-67
2021/12/25 21:41:44;;;;;;;;;;;;;;;3.74;100.00;97514.56;4916037;29;19958;-67
2021/12/25 21:44:12;;;;;;;;;;;;;;;3.60;100.00;97515.13;4917966;29;19956;-68
2021/12/25 21:46:39;;;;;;;;;;;;;;;3.61;100.00;97522.25;4918612;29;19963;-68
2021/12/25 21:49:07;;;;;;;;;;;;;;;3.62;100.00;97523.84;4917297;29;19962;-67
2021/12/25 21:51:35;;;;;;;;;;;;;;;3.70;100.00;97533.03;4918492;29;19952;-67
2021/12/25 21:54:03;;;;;;;;;;;;;;;3.76;100.00;97535.13;4918620;29;19955;-68
2021/12/25 21:56:31;;;;;;;;;;;;;;;3.82;100.00;97524.53;4918450;29;19964;-67
2021/12/25 21:58:58;;;;;;;;;;;;;;;3.85;100.00;97529.31;4918208;29;19981;-67
2021/12/25 22:01:26;;;;;;;;;;;;;;;3.85;100.00;97518.25;4918090;29;19951;-67
2021/12/25 22:03:55;;;;;;;;;;;;;;;3.90;100.00;97523.47;4917841;29;20337;-68
2021/12/25 22:06:23;;;;;;;;;;;;;;;3.88;100.00;97520.28;4915908;29;19955;-68
2021/12/25 22:08:56;;;;;;;;;;;;;;;3.88;100.00;97520.28;4915740;29;19954;-68
2021/12/25 22:11:25;;;;;;;;;;;;;;;3.83;100.00;97524.19;4917266;29;19951;-68
2021/12/25 22:13:53;;;;;;;;;;;;;;;3.78;100.00;97526.44;4917693;29;20362;-69
2021/12/25 22:16:20;;;;;;;;;;;;;;;3.71;100.00;97523.59;4917294;29;19963;-68
2021/12/25 22:18:50;;;;;;;;;;;;;;;3.62;100.00;97520.28;4915013;29;19960;-68
2021/12/25 22:21:17;;;;;;;;;;;;;;;3.60;100.00;97515.13;4917060;29;19953;-68
2021/12/25 22:23:46;;;;;;;;;;;;;;;3.55;100.00;97517.38;4917923;29;19960;-68
2021/12/25 22:26:14;;;;;;;;;;;;;;;3.57;100.00;97518.63;4917957;29;19958;-68
2021/12/25 22:28:41;;;;;;;;;;;;;;;3.60;100.00;97515.13;4912310;29;19964;-68
2021/12/25 22:31:09;;;;;;;;;;;;;;;3.64;100.00;97507.69;4898973;29;19991;-68
